Time;durP1;ratioP1;P1;durP2;ratioP2;P2;SDS_P1;SDS_P2;PMS_P1;PMS_P2;Temp;Humidity;BMP_temperature;BMP_pressure;BME280_temperature;BME280_humidity;BME280_pressure;Samples;Min_cycle;Max_cycle;Signal;HPM_P1;HPM_P2
2023/02/01 00:00:34;;;;;;;4.00;3.27;;;8.10;66.00;;;;;;5021998;28;20236;-60
2023/02/01 00:03:00;;;;;;;3.40;3.10;;;8.00;66.00;;;;;;5027245;28;20616;-59
2023/02/01 00:05:25;;;;;;;3.10;2.80;;;8.10;65.90;;;;;;5024973;28;20534;-59
2023/02/01 00:07:51;;;;;;;3.70;2.47;;;7.90;66.10;;;;;;5023553;28;20462;-60
2023/02/01 00:10:17;;;;;;;5.03;2.63;;;7.60;67.00;;;;;;5028206;28;20275;-59
2023/02/01 00:12:43;;;;;;;4.00;2.60;;;7.80;67.40;;;;;;5023282;28;20203;-60
2023/02/01 00:15:09;;;;;;;3.90;2.77;;;7.90;66.90;;;;;;5022207;28;20452;-60
2023/02/01 00:17:34;;;;;;;3.10;2.80;;;7.80;66.50;;;;;;5021728;28;20880;-61
2023/02/01 00:20:00;;;;;;;4.53;2.83;;;7.80;66.70;;;;;;5021717;28;20528;-59
2023/02/01 00:22:25;;;;;;;3.93;2.90;;;7.90;67.30;;;;;;5019150;28;20255;-59
2023/02/01 00:24:51;;;;;;;3.93;3.10;;;8.00;66.50;;;;;;5026316;28;20185;-59
2023/02/01 00:27:20;;;;;;;4.83;3.10;;;8.00;66.30;;;;;;5020739;28;20523;-59
2023/02/01 00:29:45;;;;;;;3.27;2.73;;;7.90;66.60;;;;;;5021139;28;20181;-59
2023/02/01 00:32:11;;;;;;;2.87;2.57;;;8.00;66.80;;;;;;4986169;28;1100204;-59
2023/02/01 00:34:37;;;;;;;3.93;2.97;;;8.20;66.40;;;;;;5024905;28;20494;-60
2023/02/01 00:37:03;;;;;;;3.40;2.57;;;8.30;65.50;;;;;;5022922;28;20435;-60
2023/02/01 00:39:28;;;;;;;2.80;2.40;;;8.20;65.50;;;;;;5024921;28;20700;-59
2023/02/01 00:41:54;;;;;;;2.90;2.50;;;8.10;65.90;;;;;;5028868;28;20248;-60
2023/02/01 00:44:19;;;;;;;2.57;2.37;;;8.20;65.80;;;;;;5029564;28;20216;-59
2023/02/01 00:46:45;;;;;;;2.50;2.10;;;8.20;66.60;;;;;;5031935;28;20247;-60
2023/02/01 00:49:11;;;;;;;2.30;2.10;;;8.30;65.60;;;;;;5027994;28;20247;-59
2023/02/01 00:51:36;;;;;;;2.40;2.20;;;8.50;65.30;;;;;;5032084;28;20216;-59
2023/02/01 00:54:03;;;;;;;3.97;2.23;;;8.50;64.20;;;;;;5030103;28;20193;-59
2023/02/01 00:56:29;;;;;;;3.90;2.37;;;8.20;64.70;;;;;;5014568;28;20245;-60
2023/02/01 00:58:55;;;;;;;2.80;2.10;;;8.20;65.30;;;;;;5024640;28;20467;-59
2023/02/01 01:01:23;;;;;;;3.10;2.20;;;8.10;65.40;;;;;;5022955;28;20287;-59
2023/02/01 01:03:59;;;;;;;2.20;2.00;;;8.30;65.60;;;;;;5021921;28;20444;-59
2023/02/01 01:06:27;;;;;;;1.77;1.67;;;8.10;65.20;;;;;;5024006;28;20436;-59
2023/02/01 01:08:54;;;;;;;2.33;2.03;;;8.10;65.70;;;;;;5031382;28;20432;-59
2023/02/01 01:11:24;;;;;;;2.83;2.20;;;8.00;65.80;;;;;;5029723;28;20420;-59
2023/02/01 01:13:51;;;;;;;2.90;2.00;;;8.00;66.00;;;;;;5022380;28;20908;-59
2023/02/01 01:16:19;;;;;;;2.20;2.00;;;7.70;66.50;;;;;;5029979;28;21147;-59
2023/02/01 01:18:45;;;;;;;2.60;2.40;;;7.60;67.20;;;;;;5031162;28;20810;-59
2023/02/01 01:21:13;;;;;;;2.20;2.00;;;7.80;67.10;;;;;;5029104;28;20518;-59
2023/02/01 01:23:39;;;;;;;1.93;1.83;;;7.80;66.80;;;;;;5024809;28;20468;-59
2023/02/01 01:26:09;;;;;;;2.30;2.10;;;7.60;67.20;;;;;;5022625;28;20971;-60
2023/02/01 01:28:35;;;;;;;2.30;2.10;;;7.50;68.10;;;;;;5027519;28;20511;-59
2023/02/01 01:31:01;;;;;;;2.87;1.90;;;7.50;67.90;;;;;;5017961;28;20467;-61
2023/02/01 01:33:27;;;;;;;1.83;1.73;;;7.60;68.10;;;;;;5031067;28;20440;-59
2023/02/01 01:35:53;;;;;;;2.00;1.80;;;7.70;67.70;;;;;;5035513;28;20495;-59
2023/02/01 01:38:18;;;;;;;2.80;1.93;;;7.90;66.90;;;;;;5031310;28;20201;-59
2023/02/01 01:40:49;;;;;;;2.20;2.00;;;8.10;66.40;;;;;;5031461;28;20216;-59
2023/02/01 01:43:17;;;;;;;1.63;1.50;;;8.00;66.30;;;;;;5031903;28;20211;-59
2023/02/01 01:45:43;;;;;;;2.40;1.67;;;8.10;66.10;;;;;;5031277;28;20424;-59
2023/02/01 01:48:13;;;;;;;1.67;1.57;;;8.20;65.50;;;;;;5024743;28;21111;-59
2023/02/01 01:50:44;;;;;;;1.97;1.53;;;8.20;65.20;;;;;;5029406;28;20436;-59
2023/02/01 01:53:13;;;;;;;1.50;1.40;;;8.20;64.70;;;;;;5034118;28;20836;-59
2023/02/01 01:55:43;;;;;;;2.07;1.83;;;8.20;64.80;;;;;;5031153;28;20450;-59
2023/02/01 01:58:15;;;;;;;2.17;1.60;;;8.10;65.00;;;;;;5029187;28;20451;-59
2023/02/01 02:00:41;;;;;;;1.90;1.47;;;8.20;65.30;;;;;;5020607;28;20504;-59
2023/02/01 02:03:14;;;;;;;1.60;1.50;;;8.30;65.00;;;;;;5029840;28;20474;-59
2023/02/01 02:05:40;;;;;;;2.60;1.40;;;8.30;64.50;;;;;;5022470;28;20567;-59
2023/02/01 02:08:06;;;;;;;1.40;1.30;;;8.50;64.10;;;;;;5024574;28;20459;-59
2023/02/01 02:13:17;;;;;;;1.33;1.23;;;8.60;63.70;;;;;;5019523;28;21882;-59
2023/02/01 02:16:05;;;;;;;1.73;1.60;;;8.50;63.50;;;;;;5023441;28;20455;-59
2023/02/01 02:18:48;;;;;;;1.60;1.50;;;8.30;63.80;;;;;;5020764;28;20454;-59
2023/02/01 02:21:28;;;;;;;3.00;1.30;;;8.40;64.00;;;;;;5022793;28;20491;-59
2023/02/01 02:23:57;;;;;;;2.50;1.60;;;8.30;64.30;;;;;;5021951;28;20535;-59
2023/02/01 02:26:41;;;;;;;2.40;1.50;;;8.20;64.40;;;;;;5025000;28;20459;-59
2023/02/01 02:29:54;;;;;;;2.17;1.67;;;8.40;64.70;;;;;;5027158;28;20451;-60
2023/02/01 02:32:28;;;;;;;1.50;1.40;;;8.50;64.10;;;;;;5015895;28;20495;-59
2023/02/01 02:35:08;;;;;;;2.07;1.67;;;8.60;63.90;;;;;;5029616;28;20440;-59
2023/02/01 02:38:03;;;;;;;1.90;1.77;;;8.60;63.60;;;;;;5021973;28;20856;-59
2023/02/01 02:40:48;;;;;;;1.90;1.67;;;8.50;64.10;;;;;;5027986;28;20458;-59
2023/02/01 02:49:38;;;;;;;2.97;2.00;;;8.70;64.00;;;;;;5018659;28;20459;-59
2023/02/01 02:55:03;;;;;;;2.10;1.90;;;8.70;63.40;;;;;;5028032;28;20498;-59
2023/02/01 03:05:56;;;;;;;1.80;1.63;;;8.80;63.40;;;;;;5030286;28;20473;-59
2023/02/01 03:08:25;;;;;;;2.30;1.77;;;8.60;63.70;;;;;;5030641;28;20432;-59
2023/02/01 03:10:57;;;;;;;2.20;2.00;;;8.50;64.10;;;;;;5029529;28;20201;-61
2023/02/01 03:13:35;;;;;;;5.27;2.10;;;8.30;64.70;;;;;;5023576;28;20514;-59
2023/02/01 03:16:13;;;;;;;3.10;2.90;;;8.30;65.10;;;;;;5027992;28;20493;-59
2023/02/01 03:18:47;;;;;;;2.07;1.87;;;8.30;65.80;;;;;;5029387;28;20527;-59
2023/02/01 03:21:19;;;;;;;2.10;1.80;;;8.40;65.30;;;;;;5030679;28;20471;-59
2023/02/01 03:23:48;;;;;;;2.40;2.20;;;8.20;65.50;;;;;;5028832;28;20437;-59
2023/02/01 03:26:16;;;;;;;2.93;2.17;;;8.30;65.50;;;;;;5032998;28;20825;-59
2023/02/01 03:28:47;;;;;;;3.00;2.23;;;8.20;65.80;;;;;;5032315;28;20490;-59
2023/02/01 03:31:13;;;;;;;5.10;2.60;;;8.20;65.80;;;;;;5026898;28;20472;-59
2023/02/01 03:33:39;;;;;;;2.83;2.53;;;8.00;66.50;;;;;;5032419;28;20969;-59
2023/02/01 03:36:30;;;;;;;2.47;2.27;;;8.10;66.70;;;;;;5031070;28;20519;-60
2023/02/01 03:39:04;;;;;;;2.57;2.20;;;8.20;66.70;;;;;;5030213;28;20197;-59
2023/02/01 03:41:44;;;;;;;2.47;2.27;;;8.10;66.70;;;;;;5029027;28;20990;-59
2023/02/01 03:44:32;;;;;;;2.70;2.50;;;8.00;67.20;;;;;;5033892;28;20443;-60
2023/02/01 03:47:03;;;;;;;2.57;2.37;;;8.10;67.30;;;;;;5027219;28;20833;-59
2023/02/01 03:49:36;;;;;;;3.10;2.90;;;8.00;67.30;;;;;;5031810;28;20982;-59
2023/02/01 03:52:03;;;;;;;2.03;1.93;;;8.10;67.20;;;;;;5031043;28;20464;-59
2023/02/01 03:54:30;;;;;;;2.77;2.50;;;8.10;67.10;;;;;;5032290;28;20958;-59
2023/02/01 03:56:58;;;;;;;2.50;2.30;;;7.80;67.60;;;;;;5030476;28;20431;-59
2023/02/01 03:59:24;;;;;;;2.80;2.40;;;8.00;68.10;;;;;;5030535;28;20836;-59
2023/02/01 04:01:50;;;;;;;2.93;2.63;;;8.20;67.20;;;;;;5026421;28;20491;-59
2023/02/01 04:04:19;;;;;;;2.33;2.13;;;8.30;67.10;;;;;;5027722;28;20193;-59
2023/02/01 04:06:49;;;;;;;2.43;2.23;;;8.30;66.60;;;;;;5021339;28;20185;-59
2023/02/01 04:09:15;;;;;;;3.13;2.47;;;8.30;66.60;;;;;;5027198;28;20446;-59
2023/02/01 04:11:41;;;;;;;2.47;2.10;;;8.40;66.30;;;;;;5028522;28;20531;-59
2023/02/01 04:14:07;;;;;;;2.60;2.40;;;8.50;66.00;;;;;;5026742;28;20547;-62
2023/02/01 04:16:33;;;;;;;3.20;2.50;;;8.70;65.20;;;;;;5025594;28;20204;-59
2023/02/01 04:18:58;;;;;;;2.47;2.27;;;8.90;64.60;;;;;;5026369;28;20193;-59
2023/02/01 04:21:25;;;;;;;3.40;2.43;;;9.10;64.10;;;;;;5017985;28;20496;-59
2023/02/01 04:23:51;;;;;;;3.07;2.53;;;9.10;63.50;;;;;;5026536;28;20556;-59
2023/02/01 04:26:17;;;;;;;5.50;2.33;;;8.90;63.40;;;;;;5028595;28;20456;-59
2023/02/01 04:28:42;;;;;;;3.23;1.90;;;8.80;64.10;;;;;;5028487;28;20451;-59
2023/02/01 04:31:08;;;;;;;3.33;2.67;;;8.40;65.10;;;;;;5021922;28;20263;-59
2023/02/01 04:33:34;;;;;;;3.30;3.00;;;8.30;66.00;;;;;;5029552;28;20569;-59
2023/02/01 04:35:59;;;;;;;4.53;2.63;;;8.30;66.40;;;;;;5020550;28;20691;-59
2023/02/01 04:38:25;;;;;;;2.53;2.33;;;8.10;66.80;;;;;;5017693;28;20200;-59
2023/02/01 04:40:50;;;;;;;4.27;2.80;;;8.00;67.40;;;;;;5025782;28;20217;-59
2023/02/01 04:43:17;;;;;;;2.87;2.33;;;8.10;68.20;;;;;;5029429;28;20201;-59
2023/02/01 04:45:47;;;;;;;2.40;2.30;;;8.00;67.70;;;;;;5032305;28;20288;-59
2023/02/01 04:48:13;;;;;;;2.10;1.90;;;8.00;67.80;;;;;;5028867;28;20437;-59
2023/02/01 04:50:39;;;;;;;3.57;2.67;;;8.10;67.80;;;;;;5028557;28;21154;-59
2023/02/01 04:53:04;;;;;;;2.97;2.40;;;8.00;67.70;;;;;;5028106;28;20199;-59
2023/02/01 04:55:30;;;;;;;2.47;2.20;;;8.20;67.40;;;;;;5029594;28;20182;-59
2023/02/01 04:57:56;;;;;;;2.30;2.10;;;8.30;67.10;;;;;;5023029;28;20716;-59
2023/02/01 05:00:22;;;;;;;3.10;2.30;;;8.10;67.30;;;;;;5022533;28;20193;-59
2023/02/01 05:02:47;;;;;;;1.97;1.87;;;7.90;67.60;;;;;;5022219;28;20998;-59
2023/02/01 05:05:13;;;;;;;2.37;2.17;;;7.80;67.70;;;;;;5021152;28;20198;-59
2023/02/01 05:07:39;;;;;;;2.30;2.10;;;7.90;67.90;;;;;;5028358;28;20185;-59
2023/02/01 05:10:05;;;;;;;2.50;2.30;;;8.10;67.40;;;;;;5021890;28;20202;-59
2023/02/01 05:15:14;;;;;;;2.87;2.40;;;8.00;67.70;;;;;;5027597;28;21101;-59
2023/02/01 05:17:40;;;;;;;2.30;2.10;;;8.20;67.50;;;;;;5023260;28;20439;-59
2023/02/01 05:20:07;;;;;;;2.90;2.23;;;8.30;67.40;;;;;;5022888;28;20201;-59
2023/02/01 05:22:33;;;;;;;3.20;2.40;;;8.10;66.70;;;;;;5021670;28;20256;-59
2023/02/01 05:24:58;;;;;;;2.90;2.60;;;8.30;66.90;;;;;;5021848;28;20482;-60
2023/02/01 05:27:24;;;;;;;2.30;2.10;;;8.20;67.10;;;;;;5025445;28;20193;-59
2023/02/01 05:29:49;;;;;;;3.67;2.53;;;8.40;66.50;;;;;;5028756;28;20647;-59
2023/02/01 05:32:15;;;;;;;1.93;1.80;;;8.40;66.00;;;;;;5027348;28;20232;-59
2023/02/01 05:34:40;;;;;;;3.47;2.27;;;8.50;66.10;;;;;;5031461;28;20197;-59
2023/02/01 05:37:06;;;;;;;2.77;2.30;;;8.40;66.40;;;;;;5021437;28;20189;-59
2023/02/01 05:39:31;;;;;;;2.10;1.90;;;8.50;65.70;;;;;;5031525;28;20193;-59
2023/02/01 05:41:57;;;;;;;2.63;2.30;;;8.20;65.80;;;;;;5036685;28;20232;-59
2023/02/01 05:44:23;;;;;;;2.43;2.10;;;8.10;66.60;;;;;;5026231;28;20384;-59
2023/02/01 05:46:48;;;;;;;2.53;2.30;;;8.00;67.30;;;;;;5030700;28;20567;-59
2023/02/01 05:49:14;;;;;;;2.20;2.00;;;8.00;67.30;;;;;;5026015;28;20197;-59
2023/02/01 05:51:39;;;;;;;2.43;2.23;;;8.10;66.90;;;;;;5039372;28;20189;-59
2023/02/01 05:54:05;;;;;;;2.70;2.17;;;8.10;67.10;;;;;;5031233;28;20595;-59
2023/02/01 05:56:30;;;;;;;2.47;1.90;;;8.00;67.00;;;;;;5031130;28;20195;-59
2023/02/01 05:58:56;;;;;;;2.43;2.23;;;8.10;67.10;;;;;;5030385;28;20592;-59
2023/02/01 06:01:22;;;;;;;3.70;2.30;;;8.20;66.80;;;;;;5027778;28;20315;-59
2023/02/01 06:03:48;;;;;;;2.30;2.10;;;8.30;66.50;;;;;;5024648;28;20443;-59
2023/02/01 06:06:13;;;;;;;2.00;1.90;;;8.40;66.00;;;;;;5025726;28;20209;-59
2023/02/01 06:08:42;;;;;;;2.27;2.07;;;8.30;65.70;;;;;;5023074;28;20239;-59
2023/02/01 06:11:07;;;;;;;2.70;2.20;;;8.30;66.10;;;;;;5037705;28;20648;-59
2023/02/01 06:13:33;;;;;;;2.73;2.33;;;8.20;66.10;;;;;;5024652;28;20450;-59
2023/02/01 06:15:59;;;;;;;2.27;2.07;;;8.30;66.10;;;;;;5024267;28;20204;-59
2023/02/01 06:18:25;;;;;;;2.00;1.50;;;8.30;65.80;;;;;;5017926;28;20197;-59
2023/02/01 06:20:59;;;;;;;2.30;1.70;;;8.20;66.40;;;;;;5018905;28;20190;-60
2023/02/01 06:23:25;;;;;;;2.00;1.80;;;8.30;66.40;;;;;;5021303;28;20443;-60
2023/02/01 06:25:53;;;;;;;2.23;2.00;;;8.50;66.10;;;;;;5018334;28;20447;-59
2023/02/01 06:28:18;;;;;;;3.67;2.13;;;8.50;65.30;;;;;;5023397;28;20481;-60
2023/02/01 06:30:45;;;;;;;1.87;1.77;;;8.80;65.30;;;;;;5029602;28;20522;-61
2023/02/01 06:33:14;;;;;;;2.50;2.30;;;8.90;64.30;;;;;;5029643;28;20259;-61
2023/02/01 06:35:42;;;;;;;2.50;2.30;;;8.90;64.00;;;;;;5026726;28;20432;-61
2023/02/01 06:38:07;;;;;;;3.13;2.37;;;8.90;63.90;;;;;;5030406;28;20451;-61
2023/02/01 06:40:33;;;;;;;2.30;2.10;;;9.00;63.80;;;;;;5026111;28;20444;-61
2023/02/01 06:42:59;;;;;;;5.00;3.30;;;8.80;64.10;;;;;;5024829;28;20279;-61
2023/02/01 06:45:24;;;;;;;4.63;3.03;;;8.90;64.30;;;;;;5032710;28;20197;-61
2023/02/01 06:47:50;;;;;;;4.00;2.77;;;9.10;64.00;;;;;;5033483;28;20193;-61
2023/02/01 06:50:16;;;;;;;2.03;1.90;;;9.20;63.20;;;;;;5030295;28;20228;-61
2023/02/01 06:52:42;;;;;;;2.40;2.10;;;9.20;63.00;;;;;;5026363;28;20193;-61
2023/02/01 06:55:07;;;;;;;3.67;2.50;;;9.20;63.20;;;;;;5025253;28;20288;-61
2023/02/01 06:57:35;;;;;;;3.40;2.17;;;9.50;62.70;;;;;;5029192;28;20201;-61
2023/02/01 07:00:02;;;;;;;2.03;1.87;;;9.80;62.00;;;;;;5030831;28;20193;-61
2023/02/01 07:02:28;;;;;;;4.13;1.80;;;9.70;61.20;;;;;;5030872;28;20568;-61
2023/02/01 07:04:54;;;;;;;3.70;2.83;;;9.70;60.90;;;;;;5031263;28;20926;-61
2023/02/01 07:07:20;;;;;;;2.93;2.20;;;9.80;61.00;;;;;;5041077;28;20200;-62
2023/02/01 07:09:46;;;;;;;3.10;2.57;;;9.70;61.10;;;;;;5031633;28;20271;-61
2023/02/01 07:12:11;;;;;;;2.17;1.97;;;9.60;61.60;;;;;;5038166;28;20565;-61
2023/02/01 07:14:37;;;;;;;2.93;2.10;;;9.70;61.30;;;;;;5022872;28;20197;-61
2023/02/01 07:17:02;;;;;;;2.93;2.20;;;9.80;61.00;;;;;;5032339;28;20205;-61
2023/02/01 07:19:28;;;;;;;2.70;2.00;;;9.90;60.60;;;;;;5032516;28;20668;-61
2023/02/01 07:21:54;;;;;;;2.37;2.17;;;10.00;59.30;;;;;;5033271;28;20232;-61
2023/02/01 07:24:20;;;;;;;2.63;2.43;;;9.80;60.10;;;;;;5039138;28;20452;-61
2023/02/01 07:26:47;;;;;;;4.07;2.47;;;9.70;61.00;;;;;;5031537;28;20197;-61
2023/02/01 07:29:13;;;;;;;2.83;2.30;;;9.80;61.00;;;;;;5032322;28;20645;-61
2023/02/01 07:31:38;;;;;;;3.30;2.50;;;9.80;61.00;;;;;;5039145;28;20471;-61
2023/02/01 07:34:04;;;;;;;4.30;2.70;;;9.80;60.70;;;;;;5028099;28;20189;-61
2023/02/01 07:36:30;;;;;;;2.80;2.50;;;9.60;60.70;;;;;;5030772;28;20185;-61
2023/02/01 07:38:56;;;;;;;4.60;2.27;;;9.70;61.40;;;;;;5023849;28;20225;-61
2023/02/01 07:41:22;;;;;;;3.67;2.47;;;9.70;61.10;;;;;;5033396;28;20228;-61
2023/02/01 07:43:48;;;;;;;3.70;2.40;;;9.90;60.70;;;;;;5033030;28;20803;-61
2023/02/01 07:46:15;;;;;;;6.10;3.30;;;10.20;59.10;;;;;;5033481;28;20657;-62
2023/02/01 07:48:40;;;;;;;3.27;2.87;;;10.40;59.10;;;;;;5031643;28;20193;-61
2023/02/01 07:51:09;;;;;;;3.63;2.70;;;10.60;58.20;;;;;;5035227;28;20436;-61
2023/02/01 07:53:36;;;;;;;2.90;2.40;;;10.60;57.80;;;;;;5032369;28;20211;-61
2023/02/01 07:56:03;;;;;;;4.30;3.20;;;10.70;57.50;;;;;;5041677;28;20478;-61
2023/02/01 07:58:28;;;;;;;6.20;3.20;;;10.80;57.20;;;;;;5032108;28;20436;-61
2023/02/01 08:03:39;;;;;;;3.90;2.67;;;10.50;57.80;;;;;;5032113;28;20204;-61
2023/02/01 08:06:06;;;;;;;3.77;2.77;;;10.40;58.30;;;;;;5032248;28;20851;-61
2023/02/01 08:08:32;;;;;;;2.20;2.00;;;10.40;58.00;;;;;;5030700;28;20444;-61
2023/02/01 08:11:02;;;;;;;4.70;2.20;;;10.20;58.00;;;;;;5031734;28;20443;-61
2023/02/01 08:13:28;;;;;;;3.20;2.33;;;10.20;58.20;;;;;;5027900;28;20769;-62
2023/02/01 08:16:02;;;;;;;5.43;2.93;;;10.10;58.20;;;;;;5027123;28;20444;-61
2023/02/01 08:18:27;;;;;;;3.70;2.20;;;10.20;58.30;;;;;;5024561;28;20189;-61
2023/02/01 08:20:53;;;;;;;5.27;2.33;;;10.20;58.10;;;;;;5031797;28;20454;-61
2023/02/01 08:23:20;;;;;;;5.23;2.90;;;10.00;58.40;;;;;;5029823;28;20209;-61
2023/02/01 08:25:46;;;;;;;2.83;2.10;;;9.80;59.60;;;;;;5032097;28;20444;-61
2023/02/01 08:28:12;;;;;;;3.67;2.80;;;9.80;59.70;;;;;;5030739;28;20442;-61
2023/02/01 08:30:38;;;;;;;2.67;2.40;;;9.70;59.70;;;;;;5040705;28;20220;-61
2023/02/01 08:33:06;;;;;;;2.70;2.27;;;9.60;60.20;;;;;;5031782;28;20200;-61
2023/02/01 08:35:32;;;;;;;3.90;2.77;;;9.70;60.00;;;;;;5027280;28;20443;-61
2023/02/01 08:37:58;;;;;;;9.00;2.53;;;9.90;60.00;;;;;;5032385;28;20436;-61
2023/02/01 08:40:23;;;;;;;4.30;2.07;;;10.00;58.50;;;;;;5031147;28;20502;-61
2023/02/01 08:42:52;;;;;;;3.77;2.30;;;10.10;58.20;;;;;;5028812;28;20239;-61
2023/02/01 08:45:27;;;;;;;5.20;2.50;;;10.10;57.90;;;;;;5030368;28;20607;-61
2023/02/01 08:47:53;;;;;;;6.90;2.20;;;10.20;57.80;;;;;;5029788;28;20451;-61
2023/02/01 08:50:20;;;;;;;5.77;2.67;;;10.30;57.60;;;;;;5029308;28;20490;-61
2023/02/01 08:52:47;;;;;;;7.47;4.23;;;10.50;57.40;;;;;;5029452;28;20213;-61
2023/02/01 08:55:13;;;;;;;4.30;2.83;;;10.30;57.00;;;;;;5030038;28;20986;-61
2023/02/01 08:57:39;;;;;;;3.93;2.93;;;10.40;56.90;;;;;;5030130;28;20454;-61
2023/02/01 09:00:08;;;;;;;4.57;2.63;;;10.20;56.80;;;;;;5032008;28;20424;-61
2023/02/01 09:02:33;;;;;;;3.03;2.03;;;10.20;56.90;;;;;;5032261;28;20668;-61
2023/02/01 09:04:59;;;;;;;16.33;4.73;;;10.30;56.80;;;;;;5033278;28;20424;-61
2023/02/01 09:07:25;;;;;;;3.77;2.73;;;10.30;56.80;;;;;;5037907;28;20194;-61
2023/02/01 09:09:50;;;;;;;7.10;3.27;;;10.10;56.80;;;;;;5031987;28;20185;-61
2023/02/01 09:12:16;;;;;;;4.40;2.73;;;10.10;56.90;;;;;;5030292;28;20582;-61
2023/02/01 09:14:41;;;;;;;5.40;3.17;;;10.30;56.80;;;;;;5022476;28;20201;-61
2023/02/01 09:17:07;;;;;;;3.43;2.77;;;10.50;56.30;;;;;;5030549;28;20659;-61
2023/02/01 09:19:33;;;;;;;4.00;3.10;;;10.60;56.70;;;;;;5032743;28;20243;-61
2023/02/01 09:21:58;;;;;;;6.17;2.60;;;10.40;56.40;;;;;;5031987;28;20217;-61
2023/02/01 09:24:24;;;;;;;3.03;2.67;;;10.50;56.50;;;;;;5030328;28;20197;-62
2023/02/01 09:26:50;;;;;;;8.90;3.10;;;10.60;56.20;;;;;;5020389;28;20316;-62
2023/02/01 09:29:16;;;;;;;4.33;2.50;;;10.40;55.80;;;;;;5031130;28;20186;-62
2023/02/01 09:31:41;;;;;;;7.47;3.33;;;10.40;56.20;;;;;;5030779;28;20924;-61
2023/02/01 09:34:07;;;;;;;13.77;3.93;;;10.50;57.60;;;;;;5029990;28;20193;-62
2023/02/01 09:36:34;;;;;;;7.47;3.10;;;10.30;58.70;;;;;;5030654;28;20247;-62
2023/02/01 09:39:00;;;;;;;7.10;3.10;;;10.20;59.00;;;;;;5028779;28;20197;-62
2023/02/01 09:41:41;;;;;;;5.27;3.03;;;9.90;60.10;;;;;;5032740;28;20502;-62
2023/02/01 09:44:25;;;;;;;7.20;3.00;;;10.00;59.80;;;;;;5029832;28;20869;-62
2023/02/01 09:46:56;;;;;;;7.80;2.70;;;9.90;60.50;;;;;;5030668;28;20481;-62
2023/02/01 09:49:29;;;;;;;9.00;2.73;;;9.90;60.60;;;;;;5031223;28;20456;-62
2023/02/01 09:51:56;;;;;;;9.63;2.90;;;9.90;60.40;;;;;;5028347;28;20439;-62
2023/02/01 09:54:47;;;;;;;8.37;3.10;;;10.00;58.60;;;;;;5032871;28;20443;-62
2023/02/01 09:57:23;;;;;;;6.40;2.47;;;9.70;58.60;;;;;;5029756;28;20444;-62
2023/02/01 10:00:04;;;;;;;9.23;3.10;;;9.60;59.20;;;;;;5030551;28;20873;-62
2023/02/01 10:02:30;;;;;;;7.87;3.33;;;9.80;59.20;;;;;;5026963;28;20549;-61
2023/02/01 10:04:59;;;;;;;8.00;2.90;;;10.00;58.00;;;;;;5028004;28;20498;-62
2023/02/01 10:08:02;;;;;;;10.07;3.00;;;10.10;57.80;;;;;;5026727;28;20440;-62
2023/02/01 10:10:30;;;;;;;14.83;3.43;;;10.10;57.10;;;;;;5029162;28;20804;-62
2023/02/01 10:13:01;;;;;;;6.17;2.90;;;10.00;56.80;;;;;;5032536;28;20828;-62
2023/02/01 10:15:57;;;;;;;5.30;3.33;;;10.20;57.00;;;;;;5037363;28;20440;-62
2023/02/01 10:18:37;;;;;;;14.07;3.13;;;10.10;55.70;;;;;;5030564;28;20463;-61
2023/02/01 10:21:20;;;;;;;6.50;2.80;;;9.80;56.80;;;;;;5023683;28;20491;-62
2023/02/01 10:24:01;;;;;;;4.33;2.57;;;10.00;56.20;;;;;;5023924;28;20898;-62
2023/02/01 10:26:37;;;;;;;9.03;2.97;;;10.20;56.00;;;;;;5025796;28;20447;-62
2023/02/01 10:29:09;;;;;;;6.50;2.27;;;10.20;55.90;;;;;;5025998;28;20454;-62
2023/02/01 10:31:37;;;;;;;8.07;2.40;;;10.00;54.90;;;;;;5025622;28;20564;-62
2023/02/01 10:34:20;;;;;;;7.20;2.90;;;10.20;55.80;;;;;;5026491;28;20428;-62
2023/02/01 10:36:59;;;;;;;5.83;2.40;;;10.40;55.30;;;;;;5036824;28;20446;-62
2023/02/01 10:39:25;;;;;;;6.33;2.60;;;10.60;54.70;;;;;;5030130;28;20443;-62
2023/02/01 10:41:50;;;;;;;6.10;2.33;;;10.30;54.20;;;;;;5030379;28;20479;-62
2023/02/01 10:44:26;;;;;;;7.57;2.50;;;10.00;53.70;;;;;;5033880;28;20217;-62
2023/02/01 10:46:52;;;;;;;10.63;3.10;;;10.20;54.10;;;;;;5034456;28;21020;-62
2023/02/01 10:49:53;;;;;;;7.57;2.57;;;10.50;54.00;;;;;;5029862;28;20450;-62
2023/02/01 10:52:31;;;;;;;9.83;3.43;;;10.40;53.70;;;;;;5030268;28;20215;-62
2023/02/01 10:55:34;;;;;;;5.40;2.57;;;10.30;53.70;;;;;;5029972;28;20438;-62
2023/02/01 10:58:06;;;;;;;8.50;2.33;;;10.40;53.80;;;;;;5022269;28;20472;-62
2023/02/01 11:00:44;;;;;;;6.50;2.43;;;10.50;53.70;;;;;;5033037;28;20443;-62
2023/02/01 11:03:34;;;;;;;6.30;2.40;;;10.40;53.30;;;;;;5029093;28;20514;-62
2023/02/01 11:06:02;;;;;;;8.47;3.13;;;10.20;53.60;;;;;;5031347;28;21113;-62
2023/02/01 11:08:28;;;;;;;6.93;2.77;;;10.30;53.80;;;;;;5032458;28;20462;-62
2023/02/01 11:11:02;;;;;;;4.53;2.07;;;10.20;53.80;;;;;;5039876;28;20486;-62
2023/02/01 11:13:37;;;;;;;6.63;2.50;;;10.30;53.60;;;;;;5027347;28;20449;-62
2023/02/01 11:16:04;;;;;;;11.50;2.87;;;10.30;53.70;;;;;;5031151;28;20443;-62
2023/02/01 11:18:34;;;;;;;10.17;3.90;;;10.50;53.60;;;;;;5032562;28;20444;-61
2023/02/01 11:21:00;;;;;;;5.60;2.70;;;10.40;53.50;;;;;;5028941;28;20460;-62
2023/02/01 11:23:28;;;;;;;8.87;2.50;;;10.60;53.70;;;;;;5032477;28;20478;-62
2023/02/01 11:25:59;;;;;;;6.47;2.13;;;10.30;52.60;;;;;;5032530;28;20963;-62
2023/02/01 11:28:31;;;;;;;10.43;2.53;;;10.10;52.60;;;;;;5030217;28;20454;-62
2023/02/01 11:31:03;;;;;;;6.07;2.10;;;10.00;52.80;;;;;;5032117;28;20816;-61
2023/02/01 11:33:35;;;;;;;6.17;2.60;;;10.10;53.40;;;;;;5030319;28;20455;-60
2023/02/01 11:36:14;;;;;;;9.57;2.60;;;10.20;53.30;;;;;;5021278;28;21772;-60
2023/02/01 11:38:50;;;;;;;10.17;2.60;;;10.00;52.90;;;;;;5027882;28;20445;-60
2023/02/01 11:41:23;;;;;;;8.67;2.90;;;10.00;53.60;;;;;;5031455;28;20475;-60
2023/02/01 11:43:52;;;;;;;7.87;2.73;;;9.90;53.90;;;;;;5030714;28;20442;-60
2023/02/01 11:46:24;;;;;;;10.40;2.57;;;10.00;53.30;;;;;;5030601;28;20493;-60
2023/02/01 11:48:52;;;;;;;10.20;2.80;;;10.40;53.10;;;;;;5031995;28;20444;-60
2023/02/01 11:51:35;;;;;;;18.73;4.07;;;10.30;52.10;;;;;;5025851;28;20554;-60
2023/02/01 11:54:15;;;;;;;10.80;2.60;;;10.50;52.90;;;;;;5029582;28;20436;-60
2023/02/01 11:57:11;;;;;;;11.77;3.20;;;10.40;51.70;;;;;;5026630;28;20852;-60
2023/02/01 11:59:55;;;;;;;10.37;2.13;;;10.30;51.50;;;;;;5023106;28;20448;-60
2023/02/01 12:02:43;;;;;;;14.63;3.20;;;10.30;51.60;;;;;;5022953;28;20484;-60
2023/02/01 12:05:32;;;;;;;6.77;3.10;;;10.60;51.20;;;;;;5028958;28;20454;-60
2023/02/01 12:08:16;;;;;;;6.27;2.10;;;10.40;50.40;;;;;;5030396;28;20535;-60
2023/02/01 12:10:58;;;;;;;9.23;2.30;;;10.30;51.00;;;;;;5032186;28;20903;-60
2023/02/01 12:13:46;;;;;;;5.20;2.00;;;10.30;51.20;;;;;;5028015;28;20475;-60
2023/02/01 12:16:41;;;;;;;7.27;2.00;;;10.30;50.60;;;;;;5030492;28;20471;-60
2023/02/01 12:19:33;;;;;;;3.17;1.70;;;10.00;50.50;;;;;;5027863;28;20460;-59
2023/02/01 12:22:08;;;;;;;7.90;2.00;;;9.90;51.50;;;;;;5030498;28;20582;-60
2023/02/01 12:25:18;;;;;;;8.70;2.70;;;10.10;50.50;;;;;;5036180;28;20439;-60
2023/02/01 12:28:02;;;;;;;10.37;2.77;;;10.20;49.70;;;;;;5024653;28;20463;-60
2023/02/01 12:30:49;;;;;;;7.23;1.60;;;10.20;50.00;;;;;;5031163;28;20466;-59
2023/02/01 12:33:52;;;;;;;7.20;1.63;;;10.10;50.00;;;;;;5029695;28;20554;-60
2023/02/01 12:36:49;;;;;;;8.53;2.30;;;10.00;50.10;;;;;;5030668;28;20534;-60
2023/02/01 12:39:21;;;;;;;9.73;2.57;;;9.90;51.20;;;;;;5021330;28;20454;-61
2023/02/01 12:42:08;;;;;;;7.93;2.50;;;9.80;51.70;;;;;;5028631;28;20889;-60
2023/02/01 12:44:50;;;;;;;11.63;2.60;;;9.90;52.20;;;;;;5032813;28;20466;-60
2023/02/01 12:47:22;;;;;;;4.57;2.17;;;9.90;51.50;;;;;;5027928;28;20492;-60
2023/02/01 12:49:57;;;;;;;7.83;2.13;;;10.10;50.80;;;;;;5030408;28;20454;-60
2023/02/01 12:52:31;;;;;;;4.70;2.30;;;10.20;50.90;;;;;;5021571;28;20469;-60
2023/02/01 12:55:13;;;;;;;9.83;4.63;;;10.20;50.70;;;;;;5023575;28;20523;-60
2023/02/01 12:57:45;;;;;;;7.20;3.10;;;9.90;51.90;;;;;;5024888;28;20464;-60
2023/02/01 13:00:36;;;;;;;3.77;2.23;;;10.00;52.80;;;;;;5034455;28;22572;-60
2023/02/01 13:03:40;;;;;;;4.63;2.43;;;9.80;55.60;;;;;;5031256;28;20497;-60
2023/02/01 13:06:23;;;;;;;14.90;3.40;;;9.50;55.80;;;;;;5019038;28;20462;-59
2023/02/01 13:08:58;;;;;;;7.63;2.37;;;9.50;55.90;;;;;;5037253;28;20450;-59
2023/02/01 13:11:37;;;;;;;5.50;2.20;;;9.70;56.10;;;;;;5030761;28;20820;-59
2023/02/01 13:14:25;;;;;;;7.20;2.30;;;9.90;55.60;;;;;;5021439;28;20818;-59
2023/02/01 13:17:01;;;;;;;7.13;2.50;;;10.10;54.80;;;;;;5025902;28;20523;-59
2023/02/01 13:19:40;;;;;;;9.80;2.20;;;10.00;55.10;;;;;;5033696;28;20819;-59
2023/02/01 13:22:11;;;;;;;8.13;2.63;;;9.80;56.30;;;;;;5028075;28;21552;-59
2023/02/01 13:24:49;;;;;;;12.73;2.70;;;9.50;56.60;;;;;;5014777;28;20478;-60
2023/02/01 13:27:16;;;;;;;10.00;2.70;;;9.60;57.50;;;;;;5022903;28;20530;-60
2023/02/01 13:29:50;;;;;;;13.07;2.83;;;9.30;57.20;;;;;;5028280;28;20451;-59
2023/02/01 13:32:43;;;;;;;12.50;3.03;;;9.60;57.50;;;;;;5028356;28;20517;-60
2023/02/01 13:35:37;;;;;;;7.40;2.97;;;9.80;56.80;;;;;;5025820;28;20440;-59
2023/02/01 13:38:14;;;;;;;6.60;2.20;;;9.70;56.40;;;;;;5021391;28;20627;-59